sensor_id;sensor_type;location;lat;lon;timestamp;pressure;altitude;pressure_sealevel;temperature;humidity
14269;BME280;7218;51.480;7.006;2023-01-09T00:00:33;98523.50;;;8.66;100.00
14269;BME280;7218;51.480;7.006;2023-01-09T00:02:59;98528.19;;;8.78;100.00
14269;BME280;7218;51.480;7.006;2023-01-09T00:05:26;98534.41;;;8.74;100.00
14269;BME280;7218;51.480;7.006;2023-01-09T00:07:52;98540.88;;;8.63;100.00
14269;BME280;7218;51.480;7.006;2023-01-09T00:10:19;98529.41;;;8.69;100.00
14269;BME280;7218;51.480;7.006;2023-01-09T00:12:45;98528.50;;;8.70;100.00
14269;BME280;7218;51.480;7.006;2023-01-09T00:15:12;98527.78;;;8.67;100.00
14269;BME280;7218;51.480;7.006;2023-01-09T00:17:40;98532.59;;;8.54;100.00
14269;BME280;7218;51.480;7.006;2023-01-09T00:20:07;98534.75;;;8.66;100.00
14269;BME280;7218;51.480;7.006;2023-01-09T00:22:35;98545.56;;;8.32;100.00
14269;BME280;7218;51.480;7.006;2023-01-09T00:25:03;98533.75;;;8.47;100.00
14269;BME280;7218;51.480;7.006;2023-01-09T00:27:30;98531.81;;;8.30;100.00
14269;BME280;7218;51.480;7.006;2023-01-09T00:29:57;98529.22;;;8.29;100.00
14269;BME280;7218;51.480;7.006;2023-01-09T00:32:24;98532.16;;;8.43;100.00
14269;BME280;7218;51.480;7.006;2023-01-09T00:34:52;98519.25;;;8.41;100.00
14269;BME280;7218;51.480;7.006;2023-01-09T00:37:19;98529.16;;;8.53;100.00
14269;BME280;7218;51.480;7.006;2023-01-09T00:39:45;98536.66;;;8.39;100.00
14269;BME280;7218;51.480;7.006;2023-01-09T00:42:14;98530.97;;;8.30;100.00
14269;BME280;7218;51.480;7.006;2023-01-09T00:44:46;98527.81;;;8.43;100.00
14269;BME280;7218;51.480;7.006;2023-01-09T00:47:17;98534.41;;;8.29;100.00
14269;BME280;7218;51.480;7.006;2023-01-09T00:49:45;98539.91;;;8.21;100.00
14269;BME280;7218;51.480;7.006;2023-01-09T00:52:13;98531.19;;;8.22;100.00
14269;BME280;7218;51.480;7.006;2023-01-09T00:54:41;98530.78;;;8.34;100.00
14269;BME280;7218;51.480;7.006;2023-01-09T00:57:10;98531.16;;;8.23;100.00
14269;BME280;7218;51.480;7.006;2023-01-09T00:59:37;98539.25;;;8.16;100.00
14269;BME280;7218;51.480;7.006;2023-01-09T01:02:04;98537.25;;;8.46;100.00
14269;BME280;7218;51.480;7.006;2023-01-09T01:04:31;98534.72;;;8.44;100.00
14269;BME280;7218;51.480;7.006;2023-01-09T01:07:16;98561.13;;;8.32;100.00
14269;BME280;7218;51.480;7.006;2023-01-09T01:10:00;98568.19;;;8.05;100.00
14269;BME280;7218;51.480;7.006;2023-01-09T01:12:27;98561.31;;;8.04;100.00
14269;BME280;7218;51.480;7.006;2023-01-09T01:14:53;98568.19;;;8.05;100.00
14269;BME280;7218;51.480;7.006;2023-01-09T01:17:19;98564.44;;;8.12;100.00
14269;BME280;7218;51.480;7.006;2023-01-09T01:19:46;98564.97;;;7.99;100.00
14269;BME280;7218;51.480;7.006;2023-01-09T01:22:13;98572.75;;;7.99;100.00
14269;BME280;7218;51.480;7.006;2023-01-09T01:24:40;98558.38;;;7.90;100.00
14269;BME280;7218;51.480;7.006;2023-01-09T01:27:07;98565.97;;;7.71;100.00
14269;BME280;7218;51.480;7.006;2023-01-09T01:29:33;98569.53;;;7.67;100.00
14269;BME280;7218;51.480;7.006;2023-01-09T01:32:00;98572.25;;;7.64;100.00
14269;BME280;7218;51.480;7.006;2023-01-09T01:34:27;98567.44;;;7.78;100.00
14269;BME280;7218;51.480;7.006;2023-01-09T01:36:53;98579.56;;;7.53;100.00
14269;BME280;7218;51.480;7.006;2023-01-09T01:39:20;98574.03;;;7.62;100.00
14269;BME280;7218;51.480;7.006;2023-01-09T01:41:48;98577.28;;;7.44;100.00
14269;BME280;7218;51.480;7.006;2023-01-09T01:47:19;98586.28;;;7.59;100.00
14269;BME280;7218;51.480;7.006;2023-01-09T01:49:46;98598.59;;;7.52;100.00
14269;BME280;7218;51.480;7.006;2023-01-09T01:52:13;98592.88;;;7.67;100.00
14269;BME280;7218;51.480;7.006;2023-01-09T01:54:42;98611.09;;;7.41;100.00
14269;BME280;7218;51.480;7.006;2023-01-09T01:57:10;98596.13;;;7.74;100.00
14269;BME280;7218;51.480;7.006;2023-01-09T01:59:40;98591.63;;;7.79;100.00
14269;BME280;7218;51.480;7.006;2023-01-09T02:02:09;98595.94;;;7.55;100.00
14269;BME280;7218;51.480;7.006;2023-01-09T02:04:37;98599.69;;;7.71;100.00
14269;BME280;7218;51.480;7.006;2023-01-09T02:07:07;98606.13;;;7.85;100.00
14269;BME280;7218;51.480;7.006;2023-01-09T02:09:35;98602.72;;;7.83;100.00
14269;BME280;7218;51.480;7.006;2023-01-09T02:12:15;98602.38;;;7.68;100.00
14269;BME280;7218;51.480;7.006;2023-01-09T02:14:42;98618.53;;;7.76;100.00
14269;BME280;7218;51.480;7.006;2023-01-09T02:17:17;98622.97;;;7.98;100.00
14269;BME280;7218;51.480;7.006;2023-01-09T02:20:09;98616.53;;;7.85;100.00
14269;BME280;7218;51.480;7.006;2023-01-09T02:22:55;98612.56;;;7.74;100.00
14269;BME280;7218;51.480;7.006;2023-01-09T02:25:47;98613.75;;;7.64;100.00
14269;BME280;7218;51.480;7.006;2023-01-09T02:28:35;98622.56;;;7.60;100.00
14269;BME280;7218;51.480;7.006;2023-01-09T02:31:13;98616.41;;;7.63;100.00
14269;BME280;7218;51.480;7.006;2023-01-09T02:33:51;98614.25;;;7.51;100.00
14269;BME280;7218;51.480;7.006;2023-01-09T02:36:27;98620.34;;;7.48;100.00
14269;BME280;7218;51.480;7.006;2023-01-09T02:39:07;98621.22;;;7.49;100.00
14269;BME280;7218;51.480;7.006;2023-01-09T02:41:41;98623.97;;;7.44;100.00
14269;BME280;7218;51.480;7.006;2023-01-09T02:44:15;98616.00;;;7.75;100.00
14269;BME280;7218;51.480;7.006;2023-01-09T02:46:43;98603.75;;;7.78;100.00
14269;BME280;7218;51.480;7.006;2023-01-09T02:49:10;98607.34;;;7.74;100.00
14269;BME280;7218;51.480;7.006;2023-01-09T02:51:49;98611.66;;;7.75;100.00
14269;BME280;7218;51.480;7.006;2023-01-09T02:54:23;98623.59;;;7.55;100.00
14269;BME280;7218;51.480;7.006;2023-01-09T02:57:08;98624.63;;;7.24;100.00
14269;BME280;7218;51.480;7.006;2023-01-09T02:59:46;98628.22;;;7.20;100.00
14269;BME280;7218;51.480;7.006;2023-01-09T03:02:39;98623.09;;;7.44;100.00
14269;BME280;7218;51.480;7.006;2023-01-09T03:05:10;98622.53;;;7.35;100.00
14269;BME280;7218;51.480;7.006;2023-01-09T03:07:44;98624.16;;;7.38;100.00
14269;BME280;7218;51.480;7.006;2023-01-09T03:10:18;98632.72;;;7.14;100.00
14269;BME280;7218;51.480;7.006;2023-01-09T03:12:49;98626.47;;;7.21;100.00
14269;BME280;7218;51.480;7.006;2023-01-09T03:15:20;98627.59;;;7.39;100.00
14269;BME280;7218;51.480;7.006;2023-01-09T03:17:49;98638.72;;;7.16;100.00
14269;BME280;7218;51.480;7.006;2023-01-09T03:20:20;98626.06;;;7.33;100.00
14269;BME280;7218;51.480;7.006;2023-01-09T03:22:53;98633.81;;;7.33;100.00
14269;BME280;7218;51.480;7.006;2023-01-09T03:25:20;98642.25;;;7.13;100.00
14269;BME280;7218;51.480;7.006;2023-01-09T03:27:47;98644.66;;;7.19;100.00
14269;BME280;7218;51.480;7.006;2023-01-09T03:30:15;98644.66;;;7.46;100.00
14269;BME280;7218;51.480;7.006;2023-01-09T03:32:41;98654.69;;;7.30;100.00
14269;BME280;7218;51.480;7.006;2023-01-09T03:35:09;98663.59;;;7.48;100.00
14269;BME280;7218;51.480;7.006;2023-01-09T03:37:36;98659.75;;;7.07;100.00
14269;BME280;7218;51.480;7.006;2023-01-09T03:40:03;98673.03;;;7.24;100.00
14269;BME280;7218;51.480;7.006;2023-01-09T03:42:29;98665.78;;;7.07;100.00
14269;BME280;7218;51.480;7.006;2023-01-09T03:44:56;98671.53;;;7.17;100.00
14269;BME280;7218;51.480;7.006;2023-01-09T03:47:22;98664.88;;;7.36;100.00
14269;BME280;7218;51.480;7.006;2023-01-09T03:49:48;98670.34;;;7.27;100.00
14269;BME280;7218;51.480;7.006;2023-01-09T03:52:16;98665.16;;;7.27;100.00
14269;BME280;7218;51.480;7.006;2023-01-09T03:54:43;98681.13;;;7.13;100.00
14269;BME280;7218;51.480;7.006;2023-01-09T03:57:09;98677.22;;;7.00;100.00
14269;BME280;7218;51.480;7.006;2023-01-09T03:59:36;98686.66;;;6.73;100.00
14269;BME280;7218;51.480;7.006;2023-01-09T04:02:02;98690.41;;;6.92;100.00
14269;BME280;7218;51.480;7.006;2023-01-09T04:04:28;98687.88;;;6.91;100.00
14269;BME280;7218;51.480;7.006;2023-01-09T04:06:55;98688.63;;;6.95;100.00
14269;BME280;7218;51.480;7.006;2023-01-09T04:09:23;98689.00;;;7.10;100.00
14269;BME280;7218;51.480;7.006;2023-01-09T04:11:49;98685.00;;;7.00;100.00
14269;BME280;7218;51.480;7.006;2023-01-09T04:14:16;98682.31;;;7.03;100.00
14269;BME280;7218;51.480;7.006;2023-01-09T04:16:42;98684.56;;;6.86;100.00
14269;BME280;7218;51.480;7.006;2023-01-09T04:19:09;98688.22;;;6.79;100.00
14269;BME280;7218;51.480;7.006;2023-01-09T04:21:35;98685.59;;;6.80;100.00
14269;BME280;7218;51.480;7.006;2023-01-09T04:24:02;98682.13;;;6.81;100.00
14269;BME280;7218;51.480;7.006;2023-01-09T04:26:29;98678.63;;;6.82;100.00
14269;BME280;7218;51.480;7.006;2023-01-09T04:28:56;98685.19;;;6.65;100.00
14269;BME280;7218;51.480;7.006;2023-01-09T04:31:22;98682.75;;;6.60;100.00
14269;BME280;7218;51.480;7.006;2023-01-09T04:33:49;98685.50;;;6.83;100.00
14269;BME280;7218;51.480;7.006;2023-01-09T04:36:15;98682.97;;;6.82;100.00
14269;BME280;7218;51.480;7.006;2023-01-09T04:38:41;98694.63;;;6.67;100.00
14269;BME280;7218;51.480;7.006;2023-01-09T04:41:08;98693.22;;;6.57;100.00
14269;BME280;7218;51.480;7.006;2023-01-09T04:43:36;98699.09;;;6.62;100.00
14269;BME280;7218;51.480;7.006;2023-01-09T04:46:06;98707.59;;;6.67;100.00
14269;BME280;7218;51.480;7.006;2023-01-09T04:48:32;98708.75;;;6.57;100.00
14269;BME280;7218;51.480;7.006;2023-01-09T04:50:59;98703.56;;;6.57;100.00
14269;BME280;7218;51.480;7.006;2023-01-09T04:53:25;98707.53;;;6.38;100.00
14269;BME280;7218;51.480;7.006;2023-01-09T04:55:51;98714.69;;;6.61;100.00
14269;BME280;7218;51.480;7.006;2023-01-09T04:58:18;98713.28;;;6.49;100.00
14269;BME280;7218;51.480;7.006;2023-01-09T05:00:46;98716.78;;;6.77;100.00
14269;BME280;7218;51.480;7.006;2023-01-09T05:03:12;98713.91;;;6.57;100.00
14269;BME280;7218;51.480;7.006;2023-01-09T05:05:38;98713.50;;;6.72;100.00
14269;BME280;7218;51.480;7.006;2023-01-09T05:08:05;98719.28;;;6.51;100.00
14269;BME280;7218;51.480;7.006;2023-01-09T05:10:31;98724.31;;;6.56;100.00
14269;BME280;7218;51.480;7.006;2023-01-09T05:12:58;98715.44;;;6.64;100.00
14269;BME280;7218;51.480;7.006;2023-01-09T05:15:24;98727.81;;;6.53;100.00
14269;BME280;7218;51.480;7.006;2023-01-09T05:17:53;98724.78;;;6.39;100.00
14269;BME280;7218;51.480;7.006;2023-01-09T05:20:20;98733.06;;;6.52;100.00
14269;BME280;7218;51.480;7.006;2023-01-09T05:22:46;98733.34;;;6.41;100.00
14269;BME280;7218;51.480;7.006;2023-01-09T05:25:13;98730.59;;;6.47;100.00
14269;BME280;7218;51.480;7.006;2023-01-09T05:27:39;98735.25;;;6.65;100.00
14269;BME280;7218;51.480;7.006;2023-01-09T05:30:09;98739.38;;;6.72;100.00
14269;BME280;7218;51.480;7.006;2023-01-09T05:32:35;98739.47;;;6.69;100.00
14269;BME280;7218;51.480;7.006;2023-01-09T05:35:04;98742.69;;;6.77;100.00
14269;BME280;7218;51.480;7.006;2023-01-09T05:37:31;98744.09;;;6.87;100.00
14269;BME280;7218;51.480;7.006;2023-01-09T05:39:57;98742.75;;;6.74;100.00
14269;BME280;7218;51.480;7.006;2023-01-09T05:42:23;98743.94;;;6.93;100.00
14269;BME280;7218;51.480;7.006;2023-01-09T05:44:50;98748.59;;;7.12;100.00
14269;BME280;7218;51.480;7.006;2023-01-09T05:47:16;98759.25;;;7.01;100.00
14269;BME280;7218;51.480;7.006;2023-01-09T05:49:43;98745.59;;;6.67;100.00
14269;BME280;7218;51.480;7.006;2023-01-09T05:52:10;98749.03;;;6.97;100.00
14269;BME280;7218;51.480;7.006;2023-01-09T05:54:37;98738.44;;;6.75;100.00
14269;BME280;7218;51.480;7.006;2023-01-09T05:57:03;98734.34;;;6.97;100.00
14269;BME280;7218;51.480;7.006;2023-01-09T05:59:30;98740.19;;;6.74;100.00
14269;BME280;7218;51.480;7.006;2023-01-09T06:01:56;98722.31;;;6.95;100.00
14269;BME280;7218;51.480;7.006;2023-01-09T06:04:23;98741.97;;;7.02;100.00
14269;BME280;7218;51.480;7.006;2023-01-09T06:06:49;98739.88;;;7.13;100.00
14269;BME280;7218;51.480;7.006;2023-01-09T06:09:17;98738.56;;;7.00;100.00
14269;BME280;7218;51.480;7.006;2023-01-09T06:11:43;98735.16;;;7.27;100.00
14269;BME280;7218;51.480;7.006;2023-01-09T06:14:10;98742.72;;;7.33;100.00
14269;BME280;7218;51.480;7.006;2023-01-09T06:16:36;98739.53;;;6.97;100.00
14269;BME280;7218;51.480;7.006;2023-01-09T06:19:03;98742.13;;;6.97;100.00
14269;BME280;7218;51.480;7.006;2023-01-09T06:21:30;98736.88;;;6.69;100.00
14269;BME280;7218;51.480;7.006;2023-01-09T06:23:56;98736.78;;;7.02;100.00
14269;BME280;7218;51.480;7.006;2023-01-09T06:26:25;98743.66;;;7.03;100.00
14269;BME280;7218;51.480;7.006;2023-01-09T06:28:52;98753.84;;;7.09;100.00
14269;BME280;7218;51.480;7.006;2023-01-09T06:31:19;98744.19;;;6.84;100.00
14269;BME280;7218;51.480;7.006;2023-01-09T06:33:46;98746.31;;;7.01;100.00
14269;BME280;7218;51.480;7.006;2023-01-09T06:36:13;98738.56;;;7.00;100.00
14269;BME280;7218;51.480;7.006;2023-01-09T06:38:40;98743.44;;;6.81;100.00
14269;BME280;7218;51.480;7.006;2023-01-09T06:41:06;98746.69;;;6.87;100.00
14269;BME280;7218;51.480;7.006;2023-01-09T06:43:34;98746.94;;;7.08;100.00
14269;BME280;7218;51.480;7.006;2023-01-09T06:46:01;98751.66;;;6.95;100.00
14269;BME280;7218;51.480;7.006;2023-01-09T06:48:29;98757.06;;;7.17;100.00
14269;BME280;7218;51.480;7.006;2023-01-09T06:50:56;98752.06;;;7.11;100.00
14269;BME280;7218;51.480;7.006;2023-01-09T06:53:22;98758.41;;;7.01;100.00
14269;BME280;7218;51.480;7.006;2023-01-09T06:55:49;98750.66;;;7.01;100.00
14269;BME280;7218;51.480;7.006;2023-01-09T06:58:15;98748.06;;;7.28;100.00
14269;BME280;7218;51.480;7.006;2023-01-09T07:00:43;98753.56;;;7.18;100.00
14269;BME280;7218;51.480;7.006;2023-01-09T07:03:10;98747.66;;;7.42;100.00
14269;BME280;7218;51.480;7.006;2023-01-09T07:05:43;98747.78;;;7.38;100.00
14269;BME280;7218;51.480;7.006;2023-01-09T07:08:10;98746.75;;;7.15;100.00
14269;BME280;7218;51.480;7.006;2023-01-09T07:10:37;98742.47;;;7.42;100.00
14269;BME280;7218;51.480;7.006;2023-01-09T07:13:03;98752.50;;;7.25;100.00
14269;BME280;7218;51.480;7.006;2023-01-09T07:15:30;98756.00;;;7.22;100.00
14269;BME280;7218;51.480;7.006;2023-01-09T07:17:58;98746.09;;;7.37;100.00
14269;BME280;7218;51.480;7.006;2023-01-09T07:20:25;98744.94;;;7.45;100.00
14269;BME280;7218;51.480;7.006;2023-01-09T07:22:51;98746.50;;;7.51;100.00
14269;BME280;7218;51.480;7.006;2023-01-09T07:25:19;98751.78;;;7.48;100.00
14269;BME280;7218;51.480;7.006;2023-01-09T07:27:45;98753.63;;;7.44;100.00
14269;BME280;7218;51.480;7.006;2023-01-09T07:30:13;98745.06;;;7.42;100.00
14269;BME280;7218;51.480;7.006;2023-01-09T07:32:39;98746.47;;;7.24;100.00
14269;BME280;7218;51.480;7.006;2023-01-09T07:35:09;98748.88;;;7.30;100.00
14269;BME280;7218;51.480;7.006;2023-01-09T07:37:35;98758.75;;;7.18;100.00
14269;BME280;7218;51.480;7.006;2023-01-09T07:40:02;98754.19;;;7.26;100.00
14269;BME280;7218;51.480;7.006;2023-01-09T07:42:29;98756.25;;;7.43;100.00
14269;BME280;7218;51.480;7.006;2023-01-09T07:44:55;98762.53;;;7.35;100.00
14269;BME280;7218;51.480;7.006;2023-01-09T07:47:22;98756.50;;;7.35;100.00
14269;BME280;7218;51.480;7.006;2023-01-09T07:49:48;98755.38;;;7.44;100.00
14269;BME280;7218;51.480;7.006;2023-01-09T07:52:16;98752.31;;;7.31;100.00
14269;BME280;7218;51.480;7.006;2023-01-09T07:54:42;98761.38;;;7.46;100.00
14269;BME280;7218;51.480;7.006;2023-01-09T07:57:09;98753.09;;;7.33;100.00
14269;BME280;7218;51.480;7.006;2023-01-09T07:59:35;98753.09;;;7.33;100.00
14269;BME280;7218;51.480;7.006;2023-01-09T08:02:02;98755.50;;;7.39;100.00
14269;BME280;7218;51.480;7.006;2023-01-09T08:04:29;98761.59;;;7.38;100.00
14269;BME280;7218;51.480;7.006;2023-01-09T08:06:56;98760.84;;;7.34;100.00
14269;BME280;7218;51.480;7.006;2023-01-09T08:09:23;98765.00;;;7.40;100.00
14269;BME280;7218;51.480;7.006;2023-01-09T08:11:50;98772.25;;;7.29;100.00
14269;BME280;7218;51.480;7.006;2023-01-09T08:14:16;98761.84;;;7.30;100.00
14269;BME280;7218;51.480;7.006;2023-01-09T08:16:43;98753.03;;;7.36;100.00
14269;BME280;7218;51.480;7.006;2023-01-09T08:19:09;98766.97;;;7.32;100.00
14269;BME280;7218;51.480;7.006;2023-01-09T08:21:36;98755.94;;;7.25;100.00
14269;BME280;7218;51.480;7.006;2023-01-09T08:24:03;98764.91;;;7.14;100.00
14269;BME280;7218;51.480;7.006;2023-01-09T08:26:31;98760.28;;;7.25;100.00
14269;BME280;7218;51.480;7.006;2023-01-09T08:28:57;98777.00;;;7.43;100.00
14269;BME280;7218;51.480;7.006;2023-01-09T08:31:23;98787.91;;;7.54;100.00
14269;BME280;7218;51.480;7.006;2023-01-09T08:33:50;98764.69;;;7.49;100.00
14269;BME280;7218;51.480;7.006;2023-01-09T08:36:16;98778.19;;;7.60;100.00
14269;BME280;7218;51.480;7.006;2023-01-09T08:38:43;98776.34;;;7.36;100.00
14269;BME280;7218;51.480;7.006;2023-01-09T08:41:09;98771.03;;;7.41;100.00
14269;BME280;7218;51.480;7.006;2023-01-09T08:43:55;98785.75;;;7.40;100.00
14269;BME280;7218;51.480;7.006;2023-01-09T08:46:39;98780.72;;;7.34;100.00
14269;BME280;7218;51.480;7.006;2023-01-09T08:49:24;98792.41;;;7.47;100.00
14269;BME280;7218;51.480;7.006;2023-01-09T08:51:51;98788.84;;;7.51;100.00
14269;BME280;7218;51.480;7.006;2023-01-09T08:54:17;98793.47;;;7.42;100.00
14269;BME280;7218;51.480;7.006;2023-01-09T08:56:43;98793.41;;;7.43;100.00
14269;BME280;7218;51.480;7.006;2023-01-09T08:59:11;98796.00;;;7.43;100.00
14269;BME280;7218;51.480;7.006;2023-01-09T09:01:38;98808.50;;;7.30;100.00
14269;BME280;7218;51.480;7.006;2023-01-09T09:04:04;98806.09;;;7.24;100.00
14269;BME280;7218;51.480;7.006;2023-01-09T09:06:31;98801.84;;;7.22;100.00
14269;BME280;7218;51.480;7.006;2023-01-09T09:08:58;98815.34;;;7.04;100.00
14269;BME280;7218;51.480;7.006;2023-01-09T09:11:27;98811.44;;;7.18;100.00
14269;BME280;7218;51.480;7.006;2023-01-09T09:13:54;98814.44;;;7.34;100.00
14269;BME280;7218;51.480;7.006;2023-01-09T09:16:21;98830.47;;;7.17;100.00
14269;BME280;7218;51.480;7.006;2023-01-09T09:18:48;98812.13;;;6.96;100.00
14269;BME280;7218;51.480;7.006;2023-01-09T09:21:14;98816.19;;;7.33;100.00
14269;BME280;7218;51.480;7.006;2023-01-09T09:23:41;98826.94;;;7.21;100.00
14269;BME280;7218;51.480;7.006;2023-01-09T09:26:08;98819.34;;;7.14;100.00
14269;BME280;7218;51.480;7.006;2023-01-09T09:28:34;98831.09;;;6.96;100.00
14269;BME280;7218;51.480;7.006;2023-01-09T09:31:03;98829.72;;;7.14;100.00
14269;BME280;7218;51.480;7.006;2023-01-09T09:33:31;98820.47;;;7.05;100.00
14269;BME280;7218;51.480;7.006;2023-01-09T09:35:58;98838.31;;;7.16;100.00
14269;BME280;7218;51.480;7.006;2023-01-09T09:38:25;98843.66;;;7.10;100.00
14269;BME280;7218;51.480;7.006;2023-01-09T09:41:06;98838.66;;;7.04;100.00
14269;BME280;7218;51.480;7.006;2023-01-09T09:44:05;98840.03;;;7.17;100.00
14269;BME280;7218;51.480;7.006;2023-01-09T09:47:00;98843.91;;;7.31;100.00
14269;BME280;7218;51.480;7.006;2023-01-09T09:49:39;98842.88;;;7.37;100.00
14269;BME280;7218;51.480;7.006;2023-01-09T09:52:18;98834.13;;;7.69;100.00
14269;BME280;7218;51.480;7.006;2023-01-09T09:54:48;98854.19;;;7.62;100.00
14269;BME280;7218;51.480;7.006;2023-01-09T09:57:17;98846.19;;;7.70;100.00
14269;BME280;7218;51.480;7.006;2023-01-09T09:59:46;98854.91;;;7.67;100.00
14269;BME280;7218;51.480;7.006;2023-01-09T10:02:23;98870.53;;;7.66;100.00
14269;BME280;7218;51.480;7.006;2023-01-09T10:04:57;98861.13;;;7.91;100.00
14269;BME280;7218;51.480;7.006;2023-01-09T10:07:28;98893.19;;;7.61;100.00
14269;BME280;7218;51.480;7.006;2023-01-09T10:09:59;98867.00;;;7.96;100.00
14269;BME280;7218;51.480;7.006;2023-01-09T10:12:30;98864.22;;;7.74;100.00
14269;BME280;7218;51.480;7.006;2023-01-09T10:14:58;98880.53;;;7.78;100.00
14269;BME280;7218;51.480;7.006;2023-01-09T10:17:36;98871.34;;;7.96;100.00
14269;BME280;7218;51.480;7.006;2023-01-09T10:23:19;98866.69;;;8.07;100.00
14269;BME280;7218;51.480;7.006;2023-01-09T10:25:53;98866.38;;;8.16;100.00
14269;BME280;7218;51.480;7.006;2023-01-09T10:28:43;98863.81;;;8.14;100.00
14269;BME280;7218;51.480;7.006;2023-01-09T10:31:19;98866.38;;;8.16;100.00
14269;BME280;7218;51.480;7.006;2023-01-09T10:33:55;98868.09;;;8.43;100.00
14269;BME280;7218;51.480;7.006;2023-01-09T10:36:38;98879.53;;;8.10;100.00
14269;BME280;7218;51.480;7.006;2023-01-09T10:39:11;98874.72;;;7.98;100.00
14269;BME280;7218;51.480;7.006;2023-01-09T10:41:50;98871.34;;;8.22;100.00
14269;BME280;7218;51.480;7.006;2023-01-09T10:44:23;98875.94;;;8.14;100.00
14269;BME280;7218;51.480;7.006;2023-01-09T10:46:53;98872.97;;;7.98;100.00
14269;BME280;7218;51.480;7.006;2023-01-09T10:49:21;98886.09;;;8.21;100.00
14269;BME280;7218;51.480;7.006;2023-01-09T10:51:51;98883.78;;;8.40;100.00
14269;BME280;7218;51.480;7.006;2023-01-09T10:54:19;98884.16;;;8.02;100.00
14269;BME280;7218;51.480;7.006;2023-01-09T10:56:53;98895.63;;;7.93;100.00
14269;BME280;7218;51.480;7.006;2023-01-09T10:59:20;98901.03;;;8.15;100.00
14269;BME280;7218;51.480;7.006;2023-01-09T11:01:47;98893.41;;;8.09;100.00
14269;BME280;7218;51.480;7.006;2023-01-09T11:04:19;98904.28;;;7.94;100.00
14269;BME280;7218;51.480;7.006;2023-01-09T11:06:54;98890.81;;;8.09;100.00
14269;BME280;7218;51.480;7.006;2023-01-09T11:09:23;98882.69;;;8.19;100.00
14269;BME280;7218;51.480;7.006;2023-01-09T11:11:50;98888.19;;;8.10;100.00
14269;BME280;7218;51.480;7.006;2023-01-09T11:14:22;98889.88;;;8.39;100.00
14269;BME280;7218;51.480;7.006;2023-01-09T11:16:53;98898.75;;;8.32;100.00
14269;BME280;7218;51.480;7.006;2023-01-09T11:19:22;98892.44;;;8.41;100.00
14269;BME280;7218;51.480;7.006;2023-01-09T11:22:05;98891.03;;;8.29;100.00
14269;BME280;7218;51.480;7.006;2023-01-09T11:24:32;98892.09;;;8.51;100.00
14269;BME280;7218;51.480;7.006;2023-01-09T11:27:18;98909.09;;;8.06;100.00
14269;BME280;7218;51.480;7.006;2023-01-09T11:30:09;98909.44;;;7.95;100.00
14269;BME280;7218;51.480;7.006;2023-01-09T11:32:38;98893.69;;;8.28;100.00
14269;BME280;7218;51.480;7.006;2023-01-09T11:35:12;98908.16;;;8.36;100.00
14269;BME280;7218;51.480;7.006;2023-01-09T11:37:41;98914.25;;;8.35;100.00
14269;BME280;7218;51.480;7.006;2023-01-09T11:40:17;98921.44;;;7.98;100.00
14269;BME280;7218;51.480;7.006;2023-01-09T11:42:59;98912.44;;;8.09;100.00
14269;BME280;7218;51.480;7.006;2023-01-09T11:45:29;98926.66;;;8.26;100.00
14269;BME280;7218;51.480;7.006;2023-01-09T11:47:57;98938.16;;;8.46;100.00
14269;BME280;7218;51.480;7.006;2023-01-09T11:50:26;98928.53;;;8.48;100.00
14269;BME280;7218;51.480;7.006;2023-01-09T11:53:11;98933.22;;;8.37;100.00
14269;BME280;7218;51.480;7.006;2023-01-09T11:55:38;98941.25;;;8.30;100.00
14269;BME280;7218;51.480;7.006;2023-01-09T11:58:09;98947.56;;;8.21;100.00
14269;BME280;7218;51.480;7.006;2023-01-09T12:00:41;98959.44;;;8.28;100.00
14269;BME280;7218;51.480;7.006;2023-01-09T12:03:18;98949.22;;;8.23;100.00
14269;BME280;7218;51.480;7.006;2023-01-09T12:05:54;98963.63;;;8.06;100.00
14269;BME280;7218;51.480;7.006;2023-01-09T12:08:34;98952.84;;;8.18;100.00
14269;BME280;7218;51.480;7.006;2023-01-09T12:11:21;98949.16;;;8.25;100.00
14269;BME280;7218;51.480;7.006;2023-01-09T12:14:31;98961.31;;;8.25;100.00
14269;BME280;7218;51.480;7.006;2023-01-09T12:17:16;98964.66;;;8.28;100.00
14269;BME280;7218;51.480;7.006;2023-01-09T12:19:58;98970.41;;;8.10;100.00
14269;BME280;7218;51.480;7.006;2023-01-09T12:22:33;98972.50;;;8.27;100.00
14269;BME280;7218;51.480;7.006;2023-01-09T12:25:20;98975.88;;;8.30;100.00
14269;BME280;7218;51.480;7.006;2023-01-09T12:28:01;98982.78;;;8.02;100.00
14269;BME280;7218;51.480;7.006;2023-01-09T12:30:40;98973.56;;;7.92;100.00
14269;BME280;7218;51.480;7.006;2023-01-09T12:33:22;98983.69;;;8.01;100.00
14269;BME280;7218;51.480;7.006;2023-01-09T12:36:08;98990.53;;;7.72;100.00
14269;BME280;7218;51.480;7.006;2023-01-09T12:38:40;98997.53;;;8.00;100.00
14269;BME280;7218;51.480;7.006;2023-01-09T12:44:19;98991.53;;;7.98;100.00
14269;BME280;7218;51.480;7.006;2023-01-09T12:46:56;99001.84;;;7.71;100.00
14269;BME280;7218;51.480;7.006;2023-01-09T12:49:32;99003.16;;;7.55;100.00
14269;BME280;7218;51.480;7.006;2023-01-09T12:52:04;99001.41;;;7.56;100.00
14269;BME280;7218;51.480;7.006;2023-01-09T12:54:38;98995.56;;;7.78;100.00
14269;BME280;7218;51.480;7.006;2023-01-09T12:57:13;98989.41;;;10.13;100.00
14269;BME280;7218;51.480;7.006;2023-01-09T12:59:43;98990.66;;;11.91;96.67
14269;BME280;7218;51.480;7.006;2023-01-09T13:02:19;98995.81;;;12.85;91.17
14269;BME280;7218;51.480;7.006;2023-01-09T13:04:55;98996.19;;;13.63;83.42
14269;BME280;7218;51.480;7.006;2023-01-09T13:07:27;99018.34;;;10.74;96.57
14269;BME280;7218;51.480;7.006;2023-01-09T13:09:59;99020.75;;;9.16;100.00
14269;BME280;7218;51.480;7.006;2023-01-09T13:12:33;99016.09;;;8.99;100.00
14269;BME280;7218;51.480;7.006;2023-01-09T13:15:05;99026.47;;;8.46;100.00
14269;BME280;7218;51.480;7.006;2023-01-09T13:17:37;99024.78;;;8.14;100.00
14269;BME280;7218;51.480;7.006;2023-01-09T13:20:17;99044.47;;;7.92;100.00
14269;BME280;7218;51.480;7.006;2023-01-09T13:22:45;99036.56;;;7.97;100.00
14269;BME280;7218;51.480;7.006;2023-01-09T13:25:24;99050.81;;;7.51;100.00
14269;BME280;7218;51.480;7.006;2023-01-09T13:27:59;99042.19;;;7.51;100.00
14269;BME280;7218;51.480;7.006;2023-01-09T13:30:42;99040.94;;;7.64;100.00
14269;BME280;7218;51.480;7.006;2023-01-09T13:33:18;99057.69;;;7.85;100.00
14269;BME280;7218;51.480;7.006;2023-01-09T13:35:48;99050.44;;;7.65;100.00